createdAt,value
2023-04-21T00:02:27.537Z,3.42
2023-04-21T00:04:56.582Z,3.22
2023-04-21T00:07:23.690Z,3.45
2023-04-21T00:09:50.611Z,4.47
2023-04-21T00:12:17.467Z,3.65
2023-04-21T00:14:44.461Z,3.88
2023-04-21T00:17:11.339Z,3.25
2023-04-21T00:19:38.339Z,3.72
2023-04-21T00:22:08.393Z,3.50
2023-04-21T00:24:35.529Z,3.30
2023-04-21T00:27:03.736Z,4.25
2023-04-21T00:29:30.748Z,3.38
2023-04-21T00:31:57.726Z,4.25
2023-04-21T00:34:24.652Z,3.33
2023-04-21T00:36:51.523Z,3.90
2023-04-21T00:39:18.965Z,3.28
2023-04-21T00:41:45.943Z,4.38
2023-04-21T00:44:12.846Z,3.83
2023-04-21T00:46:39.790Z,4.95
2023-04-21T00:49:08.003Z,3.60
2023-04-21T00:51:36.969Z,3.70
2023-04-21T00:54:08.055Z,3.85
2023-04-21T00:56:36.914Z,4.88
2023-04-21T00:59:04.414Z,3.92
2023-04-21T01:01:32.834Z,4.10
2023-04-21T01:04:01.067Z,3.67
2023-04-21T01:06:30.049Z,4.22
2023-04-21T01:08:57.063Z,3.92
2023-04-21T01:11:24.366Z,3.30
2023-04-21T01:13:55.099Z,3.15
2023-04-21T01:16:24.048Z,3.20
2023-04-21T01:18:54.545Z,3.85
2023-04-21T01:21:22.116Z,2.83
2023-04-21T01:23:49.099Z,3.45
2023-04-21T01:26:21.932Z,4.22
2023-04-21T01:28:49.521Z,3.50
2023-04-21T01:31:17.330Z,3.30
2023-04-21T01:33:44.948Z,3.30
2023-04-21T01:36:12.153Z,5.50
2023-04-21T01:38:40.905Z,4.35
2023-04-21T01:41:08.680Z,3.58
2023-04-21T01:43:37.184Z,4.20
2023-04-21T01:46:05.986Z,4.07
2023-04-21T01:48:33.017Z,4.35
2023-04-21T01:50:59.964Z,4.15
2023-04-21T01:53:27.135Z,4.32
2023-04-21T01:55:54.104Z,4.50
2023-04-21T01:58:22.116Z,3.80
2023-04-21T02:00:49.265Z,3.38
2023-04-21T02:03:16.439Z,3.30
2023-04-21T02:05:43.506Z,4.25
2023-04-21T02:08:10.687Z,3.88
2023-04-21T02:10:37.775Z,3.58
2023-04-21T02:13:04.693Z,4.03
2023-04-21T02:15:31.761Z,3.90
2023-04-21T02:17:58.841Z,4.10
2023-04-21T02:20:26.128Z,4.93
2023-04-21T02:22:53.038Z,5.10
2023-04-21T02:25:20.218Z,4.15
2023-04-21T02:27:47.173Z,4.03
2023-04-21T02:30:14.201Z,4.07
2023-04-21T02:32:41.575Z,3.63
2023-04-21T02:35:09.187Z,3.92
2023-04-21T02:37:36.108Z,4.00
2023-04-21T02:40:03.587Z,3.70
2023-04-21T02:42:30.533Z,4.03
2023-04-21T02:44:57.397Z,3.13
2023-04-21T02:47:24.461Z,3.67
2023-04-21T02:49:51.359Z,4.28
2023-04-21T02:52:18.369Z,5.00
2023-04-21T02:54:45.374Z,3.92
2023-04-21T02:57:12.313Z,3.83
2023-04-21T02:59:39.210Z,4.13
2023-04-21T03:02:06.125Z,4.80
2023-04-21T03:04:34.258Z,3.53
2023-04-21T03:07:01.500Z,4.95
2023-04-21T03:09:28.368Z,3.42
2023-04-21T03:11:55.339Z,3.75
2023-04-21T03:14:23.435Z,4.80
2023-04-21T03:16:50.571Z,4.05
2023-04-21T03:19:17.704Z,4.15
2023-04-21T03:21:44.797Z,5.45
2023-04-21T03:24:11.862Z,4.10
2023-04-21T03:26:41.601Z,4.28
2023-04-21T03:29:08.514Z,4.18
2023-04-21T03:31:35.490Z,4.47
2023-04-21T03:34:02.533Z,4.82
2023-04-21T03:36:29.438Z,4.28
2023-04-21T03:39:01.039Z,4.30
2023-04-21T03:41:36.309Z,3.38
2023-04-21T03:44:03.271Z,4.15
2023-04-21T03:46:30.277Z,4.40
2023-04-21T03:48:57.264Z,3.42
2023-04-21T03:51:24.290Z,3.20
2023-04-21T03:53:51.321Z,6.35
2023-04-21T03:56:18.255Z,4.80
2023-04-21T03:58:45.528Z,4.22
2023-04-21T04:01:12.446Z,4.38
2023-04-21T04:03:39.550Z,5.13
2023-04-21T04:06:06.741Z,3.50
2023-04-21T04:08:33.721Z,4.60
2023-04-21T04:11:00.680Z,3.95
2023-04-21T04:13:28.905Z,4.60
2023-04-21T04:15:55.798Z,4.60
2023-04-21T04:18:22.862Z,4.97
2023-04-21T04:20:49.881Z,4.90
2023-04-21T04:23:16.908Z,4.97
2023-04-21T04:25:43.910Z,4.60
2023-04-21T04:28:12.785Z,4.22
2023-04-21T04:30:39.790Z,4.95
2023-04-21T04:33:06.696Z,3.78
2023-04-21T04:35:33.826Z,4.68
2023-04-21T04:38:00.655Z,4.78
2023-04-21T04:40:28.808Z,4.32
2023-04-21T04:42:55.897Z,3.85
2023-04-21T04:45:22.949Z,4.82
2023-04-21T04:47:50.573Z,5.13
2023-04-21T04:50:17.648Z,4.45
2023-04-21T04:52:47.109Z,4.20
2023-04-21T04:55:14.519Z,5.63
2023-04-21T04:57:41.810Z,5.15
2023-04-21T05:00:14.495Z,4.72
2023-04-21T05:02:41.894Z,3.65
2023-04-21T05:05:09.108Z,3.45
2023-04-21T05:07:36.580Z,3.42
2023-04-21T05:10:04.718Z,3.03
2023-04-21T05:12:34.638Z,3.25
2023-04-21T05:15:01.578Z,3.33
2023-04-21T05:17:31.208Z,3.25
2023-04-21T05:19:58.186Z,3.28
2023-04-21T05:22:26.169Z,2.60
2023-04-21T05:24:53.768Z,3.17
2023-04-21T05:27:20.638Z,3.40
2023-04-21T05:29:47.565Z,2.67
2023-04-21T05:32:14.637Z,4.68
2023-04-21T05:34:41.591Z,2.30
2023-04-21T05:37:11.580Z,3.00
2023-04-21T05:39:38.558Z,2.95
2023-04-21T05:42:05.693Z,3.15
2023-04-21T05:44:32.556Z,2.50
2023-04-21T05:46:59.462Z,3.38
2023-04-21T05:49:26.396Z,2.83
2023-04-21T05:51:53.297Z,3.33
2023-04-21T05:54:20.311Z,2.38
2023-04-21T05:56:48.440Z,3.08
2023-04-21T05:59:15.872Z,3.28
2023-04-21T06:01:43.652Z,3.50
2023-04-21T06:04:11.157Z,2.97
2023-04-21T06:06:38.325Z,2.95
2023-04-21T06:09:06.137Z,4.28
2023-04-21T06:11:33.593Z,3.63
2023-04-21T06:14:01.858Z,2.35
2023-04-21T06:16:29.393Z,1.92
2023-04-21T06:18:58.987Z,1.92
2023-04-21T06:21:26.101Z,1.73
2023-04-21T06:23:53.126Z,2.03
2023-04-21T06:26:20.061Z,1.58
2023-04-21T06:28:47.042Z,2.00
2023-04-21T06:31:16.811Z,1.63
2023-04-21T06:33:43.844Z,1.55
2023-04-21T06:36:10.810Z,1.70
2023-04-21T06:38:39.991Z,2.05
2023-04-21T06:41:07.372Z,2.80
2023-04-21T06:43:34.343Z,2.63
2023-04-21T06:46:01.340Z,1.85
2023-04-21T06:48:29.945Z,2.03
2023-04-21T06:50:56.807Z,2.10
2023-04-21T06:53:23.748Z,1.52
2023-04-21T06:55:50.668Z,2.15
2023-04-21T06:58:19.168Z,1.95
2023-04-21T07:00:48.028Z,2.13
2023-04-21T07:03:15.122Z,2.15
2023-04-21T07:05:42.163Z,2.45
2023-04-21T07:08:09.005Z,1.92
2023-04-21T07:10:35.903Z,2.35
2023-04-21T07:13:02.866Z,2.05
2023-04-21T07:15:30.003Z,2.42
2023-04-21T07:17:58.897Z,1.73
2023-04-21T07:20:26.112Z,2.03
2023-04-21T07:22:53.158Z,1.65
2023-04-21T07:25:20.104Z,2.08
2023-04-21T07:27:47.280Z,1.92
2023-04-21T07:30:14.520Z,2.08
2023-04-21T07:32:41.549Z,1.55
2023-04-21T07:35:08.786Z,1.90
2023-04-21T07:37:35.797Z,2.20
2023-04-21T07:40:02.796Z,1.90
2023-04-21T07:42:29.716Z,1.92
2023-04-21T07:44:57.717Z,2.03
2023-04-21T07:47:24.964Z,2.27
2023-04-21T07:49:51.941Z,2.75
2023-04-21T07:52:18.805Z,1.90
2023-04-21T07:54:45.853Z,2.63
2023-04-21T07:57:12.716Z,1.80
2023-04-21T07:59:39.828Z,1.80
2023-04-21T08:02:07.989Z,1.77
2023-04-21T08:04:35.414Z,1.73
2023-04-21T08:07:02.938Z,2.53
2023-04-21T08:09:29.914Z,2.05
2023-04-21T08:11:58.114Z,1.73
2023-04-21T08:14:27.024Z,2.10
2023-04-21T08:16:56.781Z,2.08
2023-04-21T08:19:24.466Z,2.42
2023-04-21T08:21:51.454Z,1.90
2023-04-21T08:24:18.798Z,2.00
2023-04-21T08:26:46.016Z,1.85
2023-04-21T08:29:14.152Z,2.70
2023-04-21T08:31:41.492Z,2.00
2023-04-21T08:34:08.462Z,2.30
2023-04-21T08:36:35.423Z,1.80
2023-04-21T08:39:02.399Z,1.80
2023-04-21T08:41:29.316Z,2.00
2023-04-21T08:43:56.269Z,2.47
2023-04-21T08:46:23.767Z,1.58
2023-04-21T08:48:51.458Z,1.67
2023-04-21T08:51:24.791Z,2.47
2023-04-21T08:53:52.222Z,1.48
2023-04-21T08:56:19.263Z,1.63
2023-04-21T08:58:46.236Z,1.55
2023-04-21T09:01:13.339Z,1.70
2023-04-21T09:03:40.380Z,1.60
2023-04-21T09:06:10.229Z,1.65
2023-04-21T09:08:42.144Z,1.55
2023-04-21T09:11:13.460Z,1.70
2023-04-21T09:13:40.476Z,1.52
2023-04-21T09:16:18.396Z,1.50
2023-04-21T09:18:45.608Z,1.60
2023-04-21T09:21:15.546Z,1.88
2023-04-21T09:23:44.020Z,1.40
2023-04-21T09:26:11.811Z,1.00
2023-04-21T09:28:45.316Z,1.33
2023-04-21T09:31:25.359Z,1.30
2023-04-21T09:33:58.826Z,1.40
2023-04-21T09:36:30.977Z,1.50
2023-04-21T09:39:29.170Z,1.48
2023-04-21T09:41:50.111Z,1.20
2023-04-21T09:44:18.495Z,1.60
2023-04-21T09:46:50.069Z,1.52
2023-04-21T09:49:18.485Z,1.40
2023-04-21T09:56:53.944Z,1.70
2023-04-21T09:59:27.781Z,1.73
2023-04-21T10:01:58.116Z,1.20
2023-04-21T10:04:26.547Z,1.45
2023-04-21T10:06:54.966Z,1.40
2023-04-21T10:09:24.194Z,1.50
2023-04-21T10:11:52.913Z,1.60
2023-04-21T10:14:20.412Z,1.55
2023-04-21T10:16:57.970Z,1.70
2023-04-21T10:19:26.830Z,1.60
2023-04-21T10:21:57.833Z,1.52
2023-04-21T10:24:30.373Z,1.50
2023-04-21T10:27:02.275Z,1.30
2023-04-21T10:29:47.797Z,1.58
2023-04-21T10:33:02.024Z,1.23
2023-04-21T10:35:59.705Z,2.10
2023-04-21T10:38:41.177Z,1.23
2023-04-21T10:41:40.530Z,1.38
2023-04-21T10:44:10.191Z,1.77
2023-04-21T10:46:48.006Z,1.10
2023-04-21T10:49:24.566Z,1.10
2023-04-21T10:52:00.767Z,0.80
2023-04-21T10:54:31.319Z,1.13
2023-04-21T10:56:59.570Z,1.45
2023-04-21T10:59:29.388Z,0.98
2023-04-21T11:01:57.475Z,0.85
2023-04-21T11:04:24.848Z,1.00
2023-04-21T11:07:20.164Z,1.02
2023-04-21T11:09:48.561Z,1.08
2023-04-21T11:12:20.686Z,0.90
2023-04-21T11:14:50.717Z,0.90
2023-04-21T11:17:19.694Z,2.05
2023-04-21T11:19:49.577Z,1.20
2023-04-21T11:22:18.199Z,0.88
2023-04-21T11:24:46.925Z,1.00
2023-04-21T11:27:15.391Z,1.05
2023-04-21T11:29:42.559Z,1.10
2023-04-21T11:32:09.958Z,1.00
2023-04-21T11:34:38.357Z,1.10
2023-04-21T11:37:07.771Z,0.77
2023-04-21T11:39:34.725Z,0.88
2023-04-21T11:42:02.234Z,0.88
2023-04-21T11:44:34.966Z,0.90
2023-04-21T11:47:16.111Z,1.58
2023-04-21T11:49:54.912Z,1.08
2023-04-21T11:52:30.060Z,0.85
2023-04-21T11:55:02.218Z,1.38
2023-04-21T11:57:31.133Z,1.38
2023-04-21T12:00:02.630Z,1.17
2023-04-21T12:02:31.521Z,0.88
2023-04-21T12:05:00.238Z,1.10
2023-04-21T12:07:29.087Z,0.88
2023-04-21T12:09:55.955Z,0.80
2023-04-21T12:12:26.792Z,0.88
2023-04-21T12:14:54.209Z,0.90
2023-04-21T12:17:21.636Z,1.23
2023-04-21T12:19:48.696Z,1.35
2023-04-21T12:22:21.372Z,1.25
2023-04-21T12:24:48.250Z,1.20
2023-04-21T12:27:15.209Z,0.88
2023-04-21T12:29:42.664Z,0.93
2023-04-21T12:32:10.169Z,1.00
2023-04-21T12:34:37.335Z,0.80
2023-04-21T12:37:04.978Z,0.90
2023-04-21T12:39:32.367Z,1.33
2023-04-21T12:41:59.645Z,0.90
2023-04-21T12:44:26.919Z,0.90
2023-04-21T12:46:54.084Z,1.13
2023-04-21T12:49:21.130Z,0.90
2023-04-21T12:51:49.303Z,1.15
2023-04-21T12:54:16.243Z,1.35
2023-04-21T12:56:43.408Z,1.52
2023-04-21T12:59:11.284Z,1.30
2023-04-21T13:01:42.838Z,1.30
2023-04-21T13:04:09.990Z,1.52
2023-04-21T13:06:38.930Z,1.45
2023-04-21T13:09:06.451Z,1.42
2023-04-21T13:11:33.798Z,1.80
2023-04-21T13:14:00.736Z,1.90
2023-04-21T13:16:30.091Z,3.05
2023-04-21T13:18:57.343Z,2.72
2023-04-21T13:21:24.292Z,2.92
2023-04-21T13:23:51.165Z,2.33
2023-04-21T13:26:18.805Z,2.88
2023-04-21T13:28:45.925Z,3.72
2023-04-21T13:31:14.678Z,3.28
2023-04-21T13:33:42.546Z,3.38
2023-04-21T13:36:12.796Z,2.90
2023-04-21T13:38:41.001Z,2.60
2023-04-21T13:41:08.396Z,1.88
2023-04-21T13:43:35.531Z,1.50
2023-04-21T13:46:02.702Z,1.70
2023-04-21T13:48:30.000Z,1.80
2023-04-21T13:50:57.037Z,1.30
2023-04-21T13:53:24.042Z,1.35
2023-04-21T13:55:51.632Z,1.15
2023-04-21T13:58:18.647Z,0.60
2023-04-21T14:00:45.632Z,1.08
2023-04-21T14:03:14.140Z,1.10
2023-04-21T14:05:41.515Z,1.20
2023-04-21T14:08:08.757Z,1.10
2023-04-21T14:10:35.605Z,1.08
2023-04-21T14:13:02.470Z,1.80
2023-04-21T14:15:29.506Z,1.50
2023-04-21T14:17:57.137Z,1.10
2023-04-21T14:20:24.197Z,1.08
2023-04-21T14:22:51.185Z,1.25
2023-04-21T14:25:18.250Z,0.90
2023-04-21T14:27:45.129Z,1.30
2023-04-21T14:30:13.143Z,0.70
2023-04-21T14:32:45.385Z,0.82
2023-04-21T14:35:13.229Z,1.23
2023-04-21T14:37:41.381Z,0.80
2023-04-21T14:40:09.392Z,1.00
2023-04-21T14:42:36.353Z,0.80
2023-04-21T14:45:03.491Z,0.52
2023-04-21T14:47:31.053Z,1.15
2023-04-21T14:49:58.132Z,1.08
2023-04-21T14:52:25.867Z,1.50
2023-04-21T14:54:53.263Z,0.80
2023-04-21T14:57:21.931Z,1.10
2023-04-21T14:59:52.962Z,1.23
2023-04-21T15:02:20.785Z,0.90
2023-04-21T15:04:48.511Z,1.02
2023-04-21T15:07:17.891Z,1.23
2023-04-21T15:09:49.149Z,1.13
2023-04-21T15:12:16.146Z,1.10
2023-04-21T15:14:43.075Z,1.70
2023-04-21T15:17:10.053Z,1.40
2023-04-21T15:19:37.062Z,1.58
2023-04-21T15:22:05.067Z,1.15
2023-04-21T15:24:32.106Z,1.27
2023-04-21T15:26:59.148Z,1.48
2023-04-21T15:29:26.277Z,1.40
2023-04-21T15:31:53.148Z,1.30
2023-04-21T15:34:20.172Z,1.38
2023-04-21T15:36:47.107Z,1.10
2023-04-21T15:39:14.219Z,2.05
2023-04-21T15:41:41.451Z,1.45
2023-04-21T15:44:08.753Z,1.70
2023-04-21T15:46:36.250Z,1.83
2023-04-21T15:49:03.654Z,1.80
2023-04-21T15:51:33.443Z,1.35
2023-04-21T15:54:01.072Z,0.80
2023-04-21T15:56:28.146Z,0.90
2023-04-21T15:58:55.699Z,0.93
2023-04-21T16:01:23.219Z,0.90
2023-04-21T16:03:50.844Z,1.67
2023-04-21T16:06:18.074Z,1.58
2023-04-21T16:08:45.103Z,1.73
2023-04-21T16:11:12.277Z,2.22
2023-04-21T16:13:39.246Z,2.17
2023-04-21T16:16:06.803Z,3.00
2023-04-21T16:18:33.776Z,2.42
2023-04-21T16:21:00.842Z,1.20
2023-04-21T16:23:27.957Z,1.20
2023-04-21T16:25:55.509Z,2.00
2023-04-21T16:28:22.496Z,1.98
2023-04-21T16:30:50.182Z,2.75
2023-04-21T16:33:17.215Z,1.92
2023-04-21T16:35:44.543Z,1.60
2023-04-21T16:38:11.854Z,2.17
2023-04-21T16:40:38.873Z,1.70
2023-04-21T16:43:05.889Z,1.67
2023-04-21T16:45:32.993Z,2.17
2023-04-21T16:48:00.034Z,2.60
2023-04-21T16:50:27.351Z,2.17
2023-04-21T16:52:54.416Z,1.50
2023-04-21T16:55:21.534Z,1.00
2023-04-21T16:57:48.741Z,2.15
2023-04-21T17:00:16.455Z,1.15
2023-04-21T17:02:43.616Z,1.30
2023-04-21T17:05:12.336Z,1.40
2023-04-21T17:07:43.194Z,1.73
2023-04-21T17:10:10.622Z,1.30
2023-04-21T17:12:37.714Z,1.23
2023-04-21T17:15:05.660Z,1.25
2023-04-21T17:17:42.586Z,2.45
2023-04-21T17:20:11.815Z,1.90
2023-04-21T17:22:39.516Z,1.60
2023-04-21T17:25:06.830Z,1.40
2023-04-21T17:27:38.520Z,1.65
2023-04-21T17:30:06.475Z,1.25
2023-04-21T17:32:34.268Z,1.30
2023-04-21T17:35:01.885Z,2.10
2023-04-21T17:37:30.237Z,1.48
2023-04-21T17:39:59.129Z,2.03
2023-04-21T17:42:28.398Z,3.42
2023-04-21T17:44:55.321Z,2.00
2023-04-21T17:47:22.275Z,1.50
2023-04-21T17:49:49.215Z,1.55
2023-04-21T17:52:17.130Z,1.80
2023-04-21T17:54:44.309Z,1.88
2023-04-21T17:57:11.956Z,2.33
2023-04-21T17:59:39.581Z,1.90
2023-04-21T18:02:06.963Z,1.70
2023-04-21T18:04:34.530Z,1.70
2023-04-21T18:07:01.772Z,1.90
2023-04-21T18:09:28.761Z,2.05
2023-04-21T18:11:56.444Z,2.67
2023-04-21T18:14:23.720Z,1.90
2023-04-21T18:16:50.764Z,2.25
2023-04-21T18:19:18.578Z,1.98
2023-04-21T18:21:45.863Z,1.88
2023-04-21T18:24:12.846Z,1.88
2023-04-21T18:26:39.775Z,2.10
2023-04-21T18:29:06.887Z,2.03
2023-04-21T18:31:34.513Z,2.03
2023-04-21T18:34:01.609Z,1.80
2023-04-21T18:36:30.710Z,2.20
2023-04-21T18:38:59.360Z,5.28
2023-04-21T18:41:27.615Z,3.00
2023-04-21T18:43:54.872Z,2.58
2023-04-21T18:46:22.270Z,2.65
2023-04-21T18:48:49.382Z,2.20
2023-04-21T18:51:16.805Z,2.17
2023-04-21T18:53:43.864Z,2.33
2023-04-21T18:56:10.798Z,2.92
2023-04-21T18:58:38.217Z,2.00
2023-04-21T19:01:05.206Z,2.03
2023-04-21T19:03:32.365Z,9.77
2023-04-21T19:05:59.285Z,3.55
2023-04-21T19:08:40.647Z,3.50
2023-04-21T19:11:11.322Z,7.43
2023-04-21T19:13:38.562Z,7.07
2023-04-21T19:16:05.613Z,6.95
2023-04-21T19:18:32.619Z,6.55
2023-04-21T19:20:59.506Z,5.30
2023-04-21T19:23:26.494Z,3.67
2023-04-21T19:25:54.614Z,3.08
2023-04-21T19:28:21.823Z,3.90
2023-04-21T19:30:48.976Z,2.53
2023-04-21T19:33:16.436Z,2.88
2023-04-21T19:35:43.535Z,3.20
2023-04-21T19:38:10.786Z,3.22
2023-04-21T19:40:37.708Z,3.22
2023-04-21T19:43:05.031Z,2.80
2023-04-21T19:45:32.073Z,2.92
2023-04-21T19:47:59.024Z,3.00
2023-04-21T19:50:26.007Z,3.30
2023-04-21T19:52:52.966Z,3.35
2023-04-21T19:55:19.868Z,3.53
2023-04-21T19:57:46.736Z,3.40
2023-04-21T20:00:14.469Z,3.78
2023-04-21T20:02:41.592Z,4.50
2023-04-21T20:05:09.564Z,3.92
2023-04-21T20:07:37.391Z,5.10
2023-04-21T20:10:06.141Z,4.65
2023-04-21T20:12:33.631Z,5.15
2023-04-21T20:15:01.372Z,4.40
2023-04-21T20:17:29.257Z,6.10
2023-04-21T20:19:56.203Z,4.43
2023-04-21T20:22:23.088Z,4.35
2023-04-21T20:24:52.107Z,4.47
2023-04-21T20:27:19.435Z,4.97
2023-04-21T20:29:47.361Z,4.78
2023-04-21T20:32:14.168Z,5.38
2023-04-21T20:34:41.531Z,4.28
2023-04-21T20:37:10.715Z,4.05
2023-04-21T20:39:41.424Z,4.43
2023-04-21T20:42:13.150Z,3.75
2023-04-21T20:44:43.463Z,4.18
2023-04-21T20:47:11.645Z,4.35
2023-04-21T20:49:40.005Z,4.28
2023-04-21T20:52:07.155Z,4.63
2023-04-21T20:54:34.939Z,4.18
2023-04-21T20:57:02.435Z,4.22
2023-04-21T20:59:29.561Z,4.38
2023-04-21T21:01:56.536Z,4.70
2023-04-21T21:04:23.779Z,5.00
2023-04-21T21:06:50.831Z,5.60
2023-04-21T21:09:19.061Z,3.50
2023-04-21T21:11:46.287Z,4.80
2023-04-21T21:14:13.501Z,4.20
2023-04-21T21:16:40.748Z,5.30
2023-04-21T21:19:07.737Z,4.05
2023-04-21T21:21:34.671Z,3.70
2023-04-21T21:24:01.699Z,4.25
2023-04-21T21:26:29.357Z,4.75
2023-04-21T21:28:57.115Z,4.30
2023-04-21T21:31:25.393Z,4.20
2023-04-21T21:33:52.517Z,4.75
2023-04-21T21:36:19.606Z,5.60
2023-04-21T21:38:46.628Z,3.95
2023-04-21T21:41:14.146Z,5.90
2023-04-21T21:43:41.287Z,3.75
2023-04-21T21:46:09.068Z,3.47
2023-04-21T21:48:36.135Z,4.35
2023-04-21T21:51:04.459Z,5.65
2023-04-21T21:53:32.517Z,6.70
2023-04-21T21:56:00.222Z,7.90
2023-04-21T21:58:27.282Z,6.80
2023-04-21T22:00:54.808Z,4.47
2023-04-21T22:03:22.177Z,3.40
2023-04-21T22:05:49.269Z,3.75
2023-04-21T22:08:16.246Z,4.25
2023-04-21T22:10:43.992Z,3.70
2023-04-21T22:13:11.689Z,4.18
2023-04-21T22:15:39.033Z,4.15
2023-04-21T22:18:07.123Z,4.90
2023-04-21T22:20:34.175Z,4.80
2023-04-21T22:23:01.073Z,4.45
2023-04-21T22:25:28.058Z,4.03
2023-04-21T22:27:55.999Z,3.80
2023-04-21T22:30:23.503Z,4.95
2023-04-21T22:32:50.796Z,6.07
2023-04-21T22:35:17.774Z,5.93
2023-04-21T22:37:44.797Z,5.90
2023-04-21T22:40:12.086Z,5.72
2023-04-21T22:42:39.615Z,4.43
2023-04-21T22:45:07.506Z,3.80
2023-04-21T22:47:34.845Z,3.78
2023-04-21T22:50:01.951Z,3.92
2023-04-21T22:52:28.923Z,3.65
2023-04-21T22:54:55.865Z,3.65
2023-04-21T22:57:22.877Z,4.30
2023-04-21T22:59:49.761Z,3.63
2023-04-21T23:02:16.864Z,4.28
2023-04-21T23:04:43.838Z,4.10
2023-04-21T23:07:10.739Z,4.00
2023-04-21T23:09:37.958Z,4.63
2023-04-21T23:12:06.281Z,4.50
2023-04-21T23:14:33.268Z,3.65
2023-04-21T23:17:00.358Z,3.80
2023-04-21T23:19:27.381Z,3.40
2023-04-21T23:21:54.330Z,4.25
2023-04-21T23:24:21.198Z,3.78
2023-04-21T23:26:48.161Z,3.35
2023-04-21T23:29:15.185Z,3.30
2023-04-21T23:31:42.668Z,2.90
2023-04-21T23:34:09.685Z,3.17
2023-04-21T23:36:36.678Z,3.10
2023-04-21T23:39:03.582Z,3.67
2023-04-21T23:41:30.977Z,2.78
2023-04-21T23:43:57.902Z,3.28
2023-04-21T23:46:24.893Z,3.33
2023-04-21T23:48:51.773Z,3.05
2023-04-21T23:51:18.761Z,2.58
2023-04-21T23:53:46.057Z,3.00
2023-04-21T23:56:13.036Z,3.30
2023-04-21T23:58:39.936Z,2.95
